createdAt,value
2022-09-07T00:00:06.149Z,15.40
2022-09-07T00:02:33.569Z,15.40
2022-09-07T00:05:00.809Z,15.40
2022-09-07T00:07:27.800Z,15.40
2022-09-07T00:09:54.835Z,15.40
2022-09-07T00:12:21.862Z,15.30
2022-09-07T00:14:48.915Z,15.30
2022-09-07T00:17:15.965Z,15.30
2022-09-07T00:19:43.020Z,15.30
2022-09-07T00:22:10.092Z,15.30
2022-09-07T00:24:37.152Z,15.40
2022-09-07T00:27:04.366Z,15.50
2022-09-07T00:29:31.389Z,15.50
2022-09-07T00:31:58.534Z,15.40
2022-09-07T00:34:25.998Z,15.30
2022-09-07T00:36:52.999Z,15.30
2022-09-07T00:39:20.306Z,15.40
2022-09-07T00:41:47.451Z,15.30
2022-09-07T00:44:42.549Z,15.30
2022-09-07T00:47:29.838Z,15.30
2022-09-07T00:49:59.705Z,15.30
2022-09-07T00:52:27.142Z,15.30
2022-09-07T00:54:56.447Z,15.40
2022-09-07T00:57:23.549Z,15.40
2022-09-07T00:59:51.496Z,15.50
2022-09-07T01:02:18.686Z,15.50
2022-09-07T01:04:47.261Z,15.40
2022-09-07T01:07:14.388Z,15.40
2022-09-07T01:09:43.334Z,15.40
2022-09-07T01:12:10.354Z,15.40
2022-09-07T01:14:40.377Z,15.40
2022-09-07T01:17:36.835Z,15.30
2022-09-07T01:20:10.663Z,15.20
2022-09-07T01:23:02.051Z,15.20
2022-09-07T01:26:02.892Z,15.20
2022-09-07T01:28:31.350Z,15.20
2022-09-07T01:30:59.786Z,15.20
2022-09-07T01:34:04.788Z,15.10
2022-09-07T01:36:46.904Z,15.00
2022-09-07T01:39:14.084Z,15.00
2022-09-07T01:41:58.441Z,15.00
2022-09-07T01:44:53.856Z,15.00
2022-09-07T01:47:22.050Z,15.00
2022-09-07T01:49:55.512Z,15.00
2022-09-07T01:52:56.649Z,14.90
2022-09-07T01:55:40.279Z,14.90
2022-09-07T01:58:25.603Z,14.90
2022-09-07T02:01:22.575Z,14.90
2022-09-07T02:03:56.946Z,14.80
2022-09-07T02:06:31.479Z,14.70
2022-09-07T02:09:03.881Z,14.60
2022-09-07T02:11:39.807Z,14.50
2022-09-07T02:14:20.665Z,14.50
2022-09-07T02:17:09.319Z,14.40
2022-09-07T02:19:41.172Z,14.30
2022-09-07T02:22:14.135Z,14.30
2022-09-07T02:24:43.311Z,14.30
2022-09-07T02:27:39.546Z,14.30
2022-09-07T02:30:07.046Z,14.20
2022-09-07T02:32:34.120Z,14.20
2022-09-07T02:35:01.301Z,14.10
2022-09-07T02:37:28.674Z,14.10
2022-09-07T02:39:55.850Z,14.00
2022-09-07T02:42:22.930Z,14.10
2022-09-07T02:44:49.961Z,14.20
2022-09-07T02:47:23.101Z,14.20
2022-09-07T02:49:59.042Z,14.00
2022-09-07T02:52:45.066Z,14.00
2022-09-07T02:55:39.101Z,13.90
2022-09-07T02:58:33.058Z,13.90
2022-09-07T03:01:08.175Z,13.80
2022-09-07T03:03:47.334Z,13.70
2022-09-07T03:06:19.831Z,13.70
2022-09-07T03:08:51.964Z,13.70
2022-09-07T03:11:19.008Z,13.70
2022-09-07T03:13:46.448Z,13.50
2022-09-07T03:16:14.707Z,13.60
2022-09-07T03:18:42.672Z,13.60
2022-09-07T03:21:10.586Z,13.60
2022-09-07T03:23:40.211Z,13.60
2022-09-07T03:26:07.274Z,13.60
2022-09-07T03:28:34.588Z,13.60
2022-09-07T03:31:02.414Z,13.60
2022-09-07T03:33:29.793Z,13.60
2022-09-07T03:35:58.677Z,13.60
2022-09-07T03:38:25.707Z,13.50
2022-09-07T03:41:03.497Z,13.60
2022-09-07T03:43:30.864Z,13.60
2022-09-07T03:46:07.384Z,13.60
2022-09-07T03:48:34.947Z,13.60
2022-09-07T03:51:09.343Z,13.60
2022-09-07T03:53:38.108Z,13.50
2022-09-07T03:56:07.262Z,13.50
2022-09-07T03:58:34.415Z,13.40
2022-09-07T04:01:05.296Z,13.20
2022-09-07T04:03:32.559Z,13.20
2022-09-07T04:06:22.246Z,13.10
2022-09-07T04:08:49.296Z,13.00
2022-09-07T04:11:17.425Z,13.00
2022-09-07T04:13:44.568Z,13.00
2022-09-07T04:16:11.768Z,13.00
2022-09-07T04:18:38.899Z,13.00
2022-09-07T04:21:06.029Z,13.10
2022-09-07T04:23:33.063Z,13.10
2022-09-07T04:26:00.481Z,13.10
2022-09-07T04:28:27.658Z,13.20
2022-09-07T04:30:54.757Z,13.10
2022-09-07T04:33:22.143Z,13.10
2022-09-07T04:35:49.474Z,13.00
2022-09-07T04:38:16.869Z,12.80
2022-09-07T04:40:44.430Z,12.80
2022-09-07T04:43:13.342Z,12.90
2022-09-07T04:45:40.557Z,12.90
2022-09-07T04:48:07.599Z,12.80
2022-09-07T04:50:34.695Z,12.70
2022-09-07T04:53:01.992Z,12.70
2022-09-07T04:55:28.977Z,12.70
2022-09-07T04:57:55.994Z,12.70
2022-09-07T05:00:23.021Z,12.70
2022-09-07T05:02:50.169Z,12.70
2022-09-07T05:05:17.336Z,12.70
2022-09-07T05:07:44.976Z,12.80
2022-09-07T05:10:12.385Z,13.00
2022-09-07T05:12:39.588Z,13.00
2022-09-07T05:15:06.958Z,12.90
2022-09-07T05:17:33.946Z,12.80
2022-09-07T05:21:02.940Z,12.80
2022-09-07T05:23:29.978Z,13.00
2022-09-07T05:25:56.995Z,13.00
2022-09-07T05:28:23.947Z,13.10
2022-09-07T05:36:26.982Z,13.70
2022-09-07T05:38:55.123Z,13.80
2022-09-07T05:41:24.457Z,14.00
2022-09-07T05:46:38.788Z,14.20
2022-09-07T05:49:05.931Z,14.30
2022-09-07T05:51:33.003Z,14.40
2022-09-07T05:54:00.056Z,14.40
2022-09-07T05:56:27.015Z,14.50
2022-09-07T05:58:53.972Z,14.50
2022-09-07T06:01:21.084Z,14.50
2022-09-07T06:03:48.110Z,14.70
2022-09-07T06:06:19.385Z,14.90
2022-09-07T06:08:48.336Z,15.30
2022-09-07T06:11:17.064Z,14.80
2022-09-07T06:13:44.391Z,15.30
2022-09-07T06:16:12.857Z,15.40
2022-09-07T06:18:41.551Z,18.20
2022-09-07T06:21:16.550Z,15.60
2022-09-07T06:23:43.754Z,15.70
2022-09-07T06:26:11.209Z,15.80
2022-09-07T06:28:42.936Z,15.90
2022-09-07T06:31:11.848Z,15.90
2022-09-07T06:33:41.051Z,15.90
2022-09-07T06:36:10.035Z,16.40
2022-09-07T06:38:38.073Z,16.40
2022-09-07T06:43:54.489Z,16.20
2022-09-07T06:49:08.663Z,16.40
2022-09-07T06:51:35.570Z,16.50
2022-09-07T06:56:49.747Z,16.50
2022-09-07T06:59:16.979Z,16.60
2022-09-07T07:01:44.038Z,16.70
2022-09-07T07:04:11.375Z,16.80
2022-09-07T07:06:38.791Z,16.80
2022-09-07T07:09:06.618Z,17.00
2022-09-07T07:11:33.934Z,17.00
2022-09-07T07:14:00.918Z,17.10
2022-09-07T07:16:27.894Z,17.10
2022-09-07T07:18:55.782Z,17.20
2022-09-07T07:21:22.855Z,17.20
2022-09-07T07:23:50.836Z,17.10
2022-09-07T07:26:19.619Z,17.20
2022-09-07T07:29:03.994Z,17.20
2022-09-07T07:31:33.425Z,17.20
2022-09-07T07:34:00.423Z,17.30
2022-09-07T07:36:28.048Z,17.40
2022-09-07T07:44:14.651Z,17.90
2022-09-07T07:46:41.919Z,18.00
2022-09-07T07:49:08.920Z,18.10
2022-09-07T07:54:23.220Z,18.50
2022-09-07T07:56:50.617Z,18.80
2022-09-07T07:59:17.717Z,18.90
2022-09-07T08:01:44.767Z,19.10
2022-09-07T08:04:11.828Z,19.20
2022-09-07T08:06:42.635Z,19.30
2022-09-07T08:09:09.766Z,19.30
2022-09-07T08:11:37.418Z,19.30
2022-09-07T08:14:06.134Z,19.30
2022-09-07T08:16:34.242Z,19.30
2022-09-07T08:19:02.239Z,19.30
2022-09-07T08:21:29.605Z,19.40
2022-09-07T08:23:56.730Z,19.40
2022-09-07T08:26:23.749Z,19.50
2022-09-07T08:28:50.690Z,19.80
2022-09-07T08:31:17.876Z,19.90
2022-09-07T08:33:45.138Z,20.10
2022-09-07T08:36:12.939Z,20.20
2022-09-07T08:38:40.079Z,20.20
2022-09-07T08:41:28.897Z,20.30
2022-09-07T08:43:57.331Z,20.30
2022-09-07T08:46:36.542Z,20.50
2022-09-07T08:49:03.696Z,20.70
2022-09-07T10:25:56.628Z,23.60
2022-09-07T10:28:24.245Z,23.90
2022-09-07T10:31:16.306Z,24.10
2022-09-07T10:37:04.757Z,24.20
2022-09-07T10:39:37.175Z,24.50
2022-09-07T10:42:10.551Z,24.80
2022-09-07T11:03:29.610Z,25.30
2022-09-07T11:06:19.167Z,25.50
2022-09-07T11:12:06.224Z,25.60
2022-09-07T11:15:05.523Z,25.50
2022-09-07T11:17:43.054Z,25.80
2022-09-07T11:20:43.755Z,26.00
2022-09-07T11:23:25.503Z,26.10
2022-09-07T11:26:04.041Z,26.30
2022-09-07T11:29:29.249Z,26.30
2022-09-07T11:31:44.087Z,26.50
2022-09-07T11:34:30.101Z,26.80
2022-09-07T11:37:54.727Z,27.10
2022-09-07T11:40:27.679Z,27.10
2022-09-07T11:42:59.740Z,27.10
2022-09-07T11:45:29.816Z,27.40
2022-09-07T11:48:02.503Z,27.60
2022-09-07T11:50:33.014Z,27.90
2022-09-07T11:53:21.074Z,28.30
2022-09-07T11:55:50.361Z,28.30
2022-09-07T11:58:32.563Z,28.50
2022-09-07T12:01:21.219Z,28.60
2022-09-07T12:04:15.614Z,28.90
2022-09-07T12:07:07.070Z,29.10
2022-09-07T12:09:40.194Z,29.20
2022-09-07T12:12:22.357Z,29.50
2022-09-07T12:15:18.616Z,29.60
2022-09-07T12:17:51.401Z,29.70
2022-09-07T12:20:19.945Z,30.00
2022-09-07T12:23:13.171Z,30.20
2022-09-07T12:25:40.295Z,30.40
2022-09-07T12:28:24.697Z,30.40
2022-09-07T12:30:57.234Z,30.20
2022-09-07T12:33:26.485Z,31.00
2022-09-07T12:35:55.224Z,31.10
2022-09-07T12:38:59.950Z,31.40
2022-09-07T12:41:44.795Z,31.70
2022-09-07T12:44:19.757Z,31.60
2022-09-07T12:46:48.670Z,31.50
2022-09-07T12:49:22.703Z,31.50
2022-09-07T12:52:16.024Z,31.60
2022-09-07T12:55:16.501Z,31.50
2022-09-07T12:58:00.072Z,31.50
2022-09-07T13:00:45.043Z,31.60
2022-09-07T13:07:01.825Z,32.10
2022-09-07T13:09:33.177Z,31.80
2022-09-07T13:12:01.099Z,32.10
2022-09-07T13:14:29.164Z,32.40
2022-09-07T13:17:27.044Z,32.50
2022-09-07T13:19:54.303Z,32.10
2022-09-07T13:22:33.638Z,32.00
2022-09-07T13:25:27.325Z,32.20
2022-09-07T13:28:00.979Z,32.10
2022-09-07T13:30:29.384Z,31.90
2022-09-07T13:33:24.258Z,32.00
2022-09-07T13:36:06.424Z,32.40
2022-09-07T13:38:35.004Z,32.50
2022-09-07T13:41:16.015Z,32.10
2022-09-07T13:43:58.552Z,31.70
2022-09-07T13:46:37.501Z,31.40
2022-09-07T13:49:35.938Z,30.60
2022-09-07T13:52:22.650Z,30.30
2022-09-07T13:55:09.831Z,30.20
2022-09-07T13:57:44.665Z,30.10
2022-09-07T14:00:15.622Z,30.00
2022-09-07T14:02:42.650Z,29.80
2022-09-07T14:05:11.655Z,29.80
2022-09-07T14:07:42.018Z,29.60
2022-09-07T14:10:19.594Z,29.30
2022-09-07T14:12:49.135Z,29.00
2022-09-07T14:15:21.622Z,28.60
2022-09-07T14:17:48.889Z,28.50
2022-09-07T14:20:17.020Z,28.40
2022-09-07T14:22:44.323Z,28.30
2022-09-07T14:25:22.571Z,28.40
2022-09-07T14:27:49.884Z,28.70
2022-09-07T14:30:20.389Z,28.70
2022-09-07T14:35:28.569Z,28.80
2022-09-07T14:37:56.459Z,28.90
2022-09-07T14:40:24.687Z,28.90
2022-09-07T14:42:53.209Z,29.10
2022-09-07T14:45:23.115Z,29.00
2022-09-07T14:47:54.239Z,28.80
2022-09-07T14:50:41.025Z,28.70
2022-09-07T14:56:20.165Z,28.00
2022-09-07T14:58:49.622Z,27.80
2022-09-07T15:04:04.292Z,27.30
2022-09-07T15:09:37.184Z,27.00
2022-09-07T15:12:18.333Z,27.30
2022-09-07T15:14:45.446Z,27.40
2022-09-07T15:20:31.879Z,27.40
2022-09-07T15:22:59.214Z,27.30
2022-09-07T15:25:26.232Z,27.20
2022-09-07T15:27:54.357Z,26.80
2022-09-07T15:30:21.690Z,26.50
2022-09-07T15:32:49.479Z,26.00
2022-09-07T15:35:16.686Z,25.50
2022-09-07T15:40:33.294Z,25.10
2022-09-07T15:43:03.040Z,24.90
2022-09-07T15:45:33.793Z,24.80
2022-09-07T15:48:03.042Z,24.70
2022-09-07T15:50:30.107Z,24.50
2022-09-07T15:52:57.571Z,24.30
2022-09-07T15:55:29.020Z,24.30
2022-09-07T15:58:10.583Z,24.20
2022-09-07T16:00:38.479Z,24.00
2022-09-07T16:03:06.437Z,24.00
2022-09-07T16:05:34.334Z,23.90
2022-09-07T16:10:53.912Z,23.50
2022-09-07T16:13:24.266Z,23.30
2022-09-07T16:15:51.410Z,23.00
2022-09-07T16:18:18.597Z,22.80
2022-09-07T16:20:45.637Z,22.80
2022-09-07T16:23:15.599Z,22.50
2022-09-07T16:25:43.542Z,22.50
2022-09-07T16:28:10.953Z,22.60
2022-09-07T16:30:41.238Z,22.60
2022-09-07T16:33:08.441Z,22.60
2022-09-07T16:35:35.545Z,22.40
2022-09-07T16:40:51.323Z,22.00
2022-09-07T16:43:19.044Z,22.10
2022-09-07T16:48:34.700Z,22.00
2022-09-07T16:51:05.414Z,21.90
2022-09-07T16:53:34.459Z,21.90
2022-09-07T16:56:06.645Z,21.80
2022-09-07T17:01:29.164Z,21.80
2022-09-07T17:03:56.711Z,21.50
2022-09-07T17:06:26.175Z,21.40
2022-09-07T17:08:53.401Z,21.30
2022-09-07T17:37:40.719Z,20.90
2022-09-07T17:40:08.552Z,20.80
2022-09-07T17:45:22.875Z,20.60
2022-09-07T17:47:50.564Z,20.60
2022-09-07T17:50:18.302Z,20.40
2022-09-07T17:52:46.166Z,20.60
2022-09-07T17:55:13.254Z,20.80
2022-09-07T17:57:41.577Z,20.60
2022-09-07T18:00:11.390Z,20.50
2022-09-07T18:02:38.923Z,20.40
2022-09-07T18:05:07.050Z,20.40
2022-09-07T18:07:35.531Z,20.30
2022-09-07T18:10:03.127Z,20.40
2022-09-07T18:12:30.267Z,20.20
2022-09-07T18:14:57.186Z,20.20
2022-09-07T18:17:24.137Z,20.10
2022-09-07T18:19:51.178Z,20.20
2022-09-07T18:22:18.486Z,19.80
2022-09-07T18:24:46.040Z,19.70
2022-09-07T18:27:13.131Z,19.40
2022-09-07T18:29:40.169Z,19.00
2022-09-07T18:32:09.199Z,18.90
2022-09-07T18:34:38.186Z,18.80
2022-09-07T18:37:06.063Z,18.90
2022-09-07T18:39:34.513Z,18.70
2022-09-07T18:42:01.596Z,18.80
2022-09-07T18:47:22.149Z,18.90
2022-09-07T18:49:55.033Z,18.90
2022-09-07T18:55:10.216Z,18.90
2022-09-07T18:57:37.793Z,18.80
2022-09-07T19:00:09.577Z,19.00
2022-09-07T19:02:36.710Z,18.80
2022-09-07T19:07:51.401Z,18.80
2022-09-07T19:10:18.499Z,18.80
2022-09-07T19:12:46.354Z,18.90
2022-09-07T19:15:13.907Z,18.90
2022-09-07T19:17:41.058Z,19.10
2022-09-07T19:20:08.401Z,19.00
2022-09-07T19:22:35.414Z,18.90
2022-09-07T19:25:02.545Z,18.70
2022-09-07T19:27:29.611Z,18.80
2022-09-07T19:29:56.528Z,18.70
2022-09-07T19:32:25.622Z,19.00
2022-09-07T19:34:55.613Z,18.80
2022-09-07T19:37:27.443Z,18.40
2022-09-07T19:39:56.099Z,18.40
2022-09-07T19:42:23.906Z,18.40
2022-09-07T19:44:51.206Z,18.40
2022-09-07T19:47:18.713Z,18.20
2022-09-07T19:49:45.756Z,18.30
2022-09-07T19:52:15.854Z,18.20
2022-09-07T19:54:43.948Z,18.10
2022-09-07T19:57:10.858Z,18.20
2022-09-07T19:59:37.798Z,18.00
2022-09-07T20:02:04.751Z,18.00
2022-09-07T20:04:31.927Z,18.00
2022-09-07T20:07:01.468Z,18.10
2022-09-07T20:09:28.926Z,17.90
2022-09-07T20:11:55.911Z,17.90
2022-09-07T20:14:22.800Z,17.90
2022-09-07T20:16:49.910Z,17.80
2022-09-07T20:19:17.488Z,17.90
2022-09-07T20:21:44.431Z,17.80
2022-09-07T20:24:12.353Z,17.60
2022-09-07T20:26:39.679Z,17.50
2022-09-07T20:29:26.055Z,17.70
2022-09-07T20:31:54.175Z,17.60
2022-09-07T20:34:21.315Z,17.60
2022-09-07T20:36:52.047Z,17.60
2022-09-07T20:39:19.072Z,17.60
2022-09-07T20:41:48.939Z,17.60
2022-09-07T20:44:16.535Z,17.60
2022-09-07T20:46:49.619Z,17.50
2022-09-07T20:49:16.843Z,17.40
2022-09-07T20:51:43.750Z,17.40
2022-09-07T20:54:10.726Z,17.50
2022-09-07T20:56:40.815Z,17.20
2022-09-07T20:59:07.955Z,17.30
2022-09-07T21:01:45.395Z,17.40
2022-09-07T21:04:17.748Z,17.40
2022-09-07T21:06:44.787Z,17.30
2022-09-07T21:09:15.351Z,17.10
2022-09-07T21:11:46.155Z,17.20
2022-09-07T21:14:24.740Z,17.20
2022-09-07T21:16:54.072Z,17.20
2022-09-07T21:19:21.396Z,17.10
2022-09-07T21:21:50.490Z,17.20
2022-09-07T21:24:18.423Z,17.10
2022-09-07T21:26:45.531Z,17.20
2022-09-07T21:29:22.117Z,17.20
2022-09-07T21:31:49.085Z,17.10
2022-09-07T21:34:16.286Z,17.10
2022-09-07T21:36:43.194Z,16.90
2022-09-07T21:39:14.195Z,16.90
2022-09-07T21:44:17.407Z,16.70
2022-09-07T21:46:44.649Z,16.70
2022-09-07T21:49:14.919Z,16.60
2022-09-07T21:51:41.835Z,16.70
2022-09-07T21:54:08.883Z,16.80
2022-09-07T21:56:35.990Z,16.60
2022-09-07T21:59:02.980Z,16.70
2022-09-07T22:01:30.928Z,16.70
2022-09-07T22:04:02.435Z,16.60
2022-09-07T22:06:29.714Z,16.70
2022-09-07T22:08:56.768Z,16.50
2022-09-07T22:11:24.716Z,16.50
2022-09-07T22:14:00.888Z,16.40
2022-09-07T22:16:28.312Z,16.40
2022-09-07T22:18:55.401Z,16.40
2022-09-07T22:21:30.353Z,16.40
2022-09-07T22:24:00.122Z,16.40
2022-09-07T22:26:30.543Z,16.30
2022-09-07T22:28:58.138Z,16.30
2022-09-07T22:31:32.569Z,16.20
2022-09-07T22:34:00.439Z,16.10
2022-09-07T22:36:50.957Z,16.20
2022-09-07T22:39:20.306Z,16.00
2022-09-07T22:41:47.875Z,16.00
2022-09-07T22:44:52.478Z,16.00
2022-09-07T22:47:19.512Z,16.00
2022-09-07T22:49:46.708Z,16.10
2022-09-07T22:52:14.666Z,15.90
2022-09-07T22:54:42.354Z,15.90
2022-09-07T22:57:09.279Z,15.90
2022-09-07T22:59:36.813Z,16.00
2022-09-07T23:02:03.770Z,15.90
2022-09-07T23:04:31.835Z,15.90
2022-09-07T23:06:59.763Z,16.00
2022-09-07T23:09:29.333Z,15.80
2022-09-07T23:11:56.616Z,16.10
2022-09-07T23:14:23.931Z,16.00
2022-09-07T23:16:51.039Z,16.10
2022-09-07T23:19:18.607Z,15.90
2022-09-07T23:21:45.813Z,15.80
2022-09-07T23:24:17.014Z,15.90
2022-09-07T23:26:50.121Z,16.00
2022-09-07T23:29:17.094Z,15.80
2022-09-07T23:31:45.761Z,15.90
2022-09-07T23:34:12.698Z,15.70
2022-09-07T23:36:39.695Z,15.70
2022-09-07T23:39:06.628Z,15.60
2022-09-07T23:41:33.595Z,15.50
2022-09-07T23:44:00.682Z,15.70
2022-09-07T23:46:30.602Z,15.40
2022-09-07T23:48:57.515Z,15.60
2022-09-07T23:51:24.924Z,15.60
2022-09-07T23:53:56.326Z,15.50
2022-09-07T23:56:26.241Z,15.70
2022-09-07T23:58:56.394Z,15.70
